sensor_id;sensor_type;location;lat;lon;timestamp;pressure;altitude;pressure_sealevel;temperature;humidity
74544;BME280;63016;55.030;38.710;2023-06-14T00:01:39;100330.69;;;14.23;41.54
74544;BME280;63016;55.030;38.710;2023-06-14T00:04:04;100332.50;;;14.23;41.66
74544;BME280;63016;55.030;38.710;2023-06-14T00:06:31;100331.22;;;14.19;41.70
74544;BME280;63016;55.030;38.710;2023-06-14T00:08:56;100333.19;;;14.17;41.96
74544;BME280;63016;55.030;38.710;2023-06-14T00:11:22;100333.50;;;14.22;41.91
74544;BME280;63016;55.030;38.710;2023-06-14T00:13:47;100339.72;;;14.21;41.80
74544;BME280;63016;55.030;38.710;2023-06-14T00:16:13;100337.28;;;14.19;41.87
74544;BME280;63016;55.030;38.710;2023-06-14T00:18:38;100327.59;;;14.20;41.93
74544;BME280;63016;55.030;38.710;2023-06-14T00:21:05;100338.09;;;14.20;41.86
74544;BME280;63016;55.030;38.710;2023-06-14T00:23:31;100323.53;;;14.17;41.94
74544;BME280;63016;55.030;38.710;2023-06-14T00:25:57;100322.69;;;14.17;42.05
74544;BME280;63016;55.030;38.710;2023-06-14T00:28:22;100328.94;;;14.15;41.87
74544;BME280;63016;55.030;38.710;2023-06-14T00:30:47;100333.38;;;14.15;42.03
74544;BME280;63016;55.030;38.710;2023-06-14T00:33:13;100332.56;;;14.14;42.22
74544;BME280;63016;55.030;38.710;2023-06-14T00:35:39;100331.56;;;14.15;42.24
74544;BME280;63016;55.030;38.710;2023-06-14T00:38:04;100331.56;;;14.15;42.29
74544;BME280;63016;55.030;38.710;2023-06-14T00:40:30;100331.94;;;14.12;41.75
74544;BME280;63016;55.030;38.710;2023-06-14T00:42:55;100331.13;;;14.12;41.84
74544;BME280;63016;55.030;38.710;2023-06-14T00:45:21;100327.84;;;14.10;42.00
74544;BME280;63016;55.030;38.710;2023-06-14T00:47:47;100322.50;;;14.03;41.83
74544;BME280;63016;55.030;38.710;2023-06-14T00:50:13;100331.53;;;14.01;42.37
74544;BME280;63016;55.030;38.710;2023-06-14T00:52:39;100330.91;;;13.99;42.50
74544;BME280;63016;55.030;38.710;2023-06-14T00:55:05;100335.97;;;14.00;42.60
74544;BME280;63016;55.030;38.710;2023-06-14T00:57:32;100333.16;;;14.02;42.70
74544;BME280;63016;55.030;38.710;2023-06-14T00:59:57;100330.53;;;14.02;42.42
74544;BME280;63016;55.030;38.710;2023-06-14T01:02:23;100328.28;;;13.99;42.50
74544;BME280;63016;55.030;38.710;2023-06-14T01:04:49;100331.06;;;13.97;42.63
74544;BME280;63016;55.030;38.710;2023-06-14T01:07:31;100332.72;;;13.98;42.82
74544;BME280;63016;55.030;38.710;2023-06-14T01:10:24;100335.16;;;14.00;41.52
74544;BME280;63016;55.030;38.710;2023-06-14T01:13:02;100333.53;;;13.99;42.73
74544;BME280;63016;55.030;38.710;2023-06-14T01:15:31;100332.72;;;13.98;42.47
74544;BME280;63016;55.030;38.710;2023-06-14T01:17:56;100328.63;;;13.96;42.68
74544;BME280;63016;55.030;38.710;2023-06-14T01:20:31;100336.31;;;13.97;42.60
74544;BME280;63016;55.030;38.710;2023-06-14T01:22:58;100336.50;;;13.96;42.53
74544;BME280;63016;55.030;38.710;2023-06-14T01:25:23;100334.69;;;13.96;42.54
74544;BME280;63016;55.030;38.710;2023-06-14T01:28:01;100331.44;;;13.94;42.41
74544;BME280;63016;55.030;38.710;2023-06-14T01:30:29;100327.81;;;13.95;42.32
74544;BME280;63016;55.030;38.710;2023-06-14T01:32:56;100333.06;;;13.95;42.55
74544;BME280;63016;55.030;38.710;2023-06-14T01:35:23;100338.31;;;13.95;42.29
74544;BME280;63016;55.030;38.710;2023-06-14T01:37:49;100330.63;;;13.94;42.02
74544;BME280;63016;55.030;38.710;2023-06-14T01:40:15;100331.63;;;13.93;42.17
74544;BME280;63016;55.030;38.710;2023-06-14T01:42:42;100333.25;;;13.94;42.19
74544;BME280;63016;55.030;38.710;2023-06-14T01:45:09;100330.97;;;13.91;42.14
74544;BME280;63016;55.030;38.710;2023-06-14T01:47:36;100328.16;;;13.92;42.31
74544;BME280;63016;55.030;38.710;2023-06-14T01:50:02;100326.38;;;13.93;42.03
74544;BME280;63016;55.030;38.710;2023-06-14T01:52:28;100333.06;;;13.95;42.43
74544;BME280;63016;55.030;38.710;2023-06-14T01:54:54;100326.81;;;13.96;42.62
74544;BME280;63016;55.030;38.710;2023-06-14T01:57:19;100331.06;;;13.97;42.38
74544;BME280;63016;55.030;38.710;2023-06-14T01:59:46;100331.72;;;13.99;42.45
74544;BME280;63016;55.030;38.710;2023-06-14T02:02:14;100330.72;;;14.00;42.20
74544;BME280;63016;55.030;38.710;2023-06-14T02:04:40;100327.09;;;14.01;42.43
74544;BME280;63016;55.030;38.710;2023-06-14T02:07:06;100323.66;;;14.01;42.26
74544;BME280;63016;55.030;38.710;2023-06-14T02:09:31;100326.13;;;14.02;42.38
74544;BME280;63016;55.030;38.710;2023-06-14T02:11:57;100326.47;;;13.99;42.28
74544;BME280;63016;55.030;38.710;2023-06-14T02:14:24;100341.03;;;14.02;42.42
74544;BME280;63016;55.030;38.710;2023-06-14T02:16:49;100326.94;;;14.03;42.57
74544;BME280;63016;55.030;38.710;2023-06-14T02:19:16;100333.81;;;14.04;42.73
74544;BME280;63016;55.030;38.710;2023-06-14T02:21:42;100333.63;;;14.05;42.35
74544;BME280;63016;55.030;38.710;2023-06-14T02:24:08;100341.16;;;14.08;42.67
74544;BME280;63016;55.030;38.710;2023-06-14T02:26:33;100334.91;;;14.09;42.72
74544;BME280;63016;55.030;38.710;2023-06-14T02:28:59;100342.44;;;14.12;42.92
74544;BME280;63016;55.030;38.710;2023-06-14T02:31:25;100344.69;;;14.15;42.46
74544;BME280;63016;55.030;38.710;2023-06-14T02:33:51;100346.78;;;14.20;42.84
74544;BME280;63016;55.030;38.710;2023-06-14T02:36:16;100344.63;;;14.24;43.08
74544;BME280;63016;55.030;38.710;2023-06-14T02:38:42;100348.53;;;14.28;42.96
74544;BME280;63016;55.030;38.710;2023-06-14T02:41:07;100345.53;;;14.31;43.22
74544;BME280;63016;55.030;38.710;2023-06-14T02:43:32;100345.19;;;14.34;42.90
74544;BME280;63016;55.030;38.710;2023-06-14T02:45:58;100345.44;;;14.39;43.08
74544;BME280;63016;55.030;38.710;2023-06-14T02:48:24;100336.41;;;14.42;43.11
74544;BME280;63016;55.030;38.710;2023-06-14T02:50:49;100347.19;;;14.47;43.26
74544;BME280;63016;55.030;38.710;2023-06-14T02:53:16;100343.06;;;14.52;43.37
74544;BME280;63016;55.030;38.710;2023-06-14T02:55:42;100340.72;;;14.57;43.26
74544;BME280;63016;55.030;38.710;2023-06-14T02:58:08;100338.97;;;14.64;43.81
74544;BME280;63016;55.030;38.710;2023-06-14T03:00:33;100343.16;;;14.74;43.66
74544;BME280;63016;55.030;38.710;2023-06-14T03:03:00;100332.75;;;14.80;43.68
74544;BME280;63016;55.030;38.710;2023-06-14T03:05:27;100323.94;;;14.88;44.27
74544;BME280;63016;55.030;38.710;2023-06-14T03:07:53;100328.56;;;15.01;43.88
74544;BME280;63016;55.030;38.710;2023-06-14T03:10:19;100325.28;;;15.13;43.86
74544;BME280;63016;55.030;38.710;2023-06-14T03:12:44;100326.22;;;15.27;44.09
74544;BME280;63016;55.030;38.710;2023-06-14T03:15:10;100323.13;;;15.38;44.50
74544;BME280;63016;55.030;38.710;2023-06-14T03:17:38;100322.06;;;15.54;44.41
74544;BME280;63016;55.030;38.710;2023-06-14T03:20:04;100327.75;;;15.73;44.20
74544;BME280;63016;55.030;38.710;2023-06-14T03:22:31;100331.94;;;15.88;43.88
74544;BME280;63016;55.030;38.710;2023-06-14T03:24:58;100329.22;;;16.03;43.97
74544;BME280;63016;55.030;38.710;2023-06-14T03:27:24;100327.31;;;16.18;44.19
74544;BME280;63016;55.030;38.710;2023-06-14T03:29:50;100323.38;;;16.36;44.23
74544;BME280;63016;55.030;38.710;2023-06-14T03:32:16;100319.63;;;16.52;44.17
74544;BME280;63016;55.030;38.710;2023-06-14T03:34:42;100317.69;;;16.67;43.80
74544;BME280;63016;55.030;38.710;2023-06-14T03:37:08;100311.56;;;16.88;43.65
74544;BME280;63016;55.030;38.710;2023-06-14T03:39:33;100313.63;;;17.06;43.85
74544;BME280;63016;55.030;38.710;2023-06-14T03:41:59;100309.22;;;17.19;43.20
74544;BME280;63016;55.030;38.710;2023-06-14T03:44:26;100306.81;;;17.31;42.86
74544;BME280;63016;55.030;38.710;2023-06-14T03:46:52;100304.63;;;17.41;42.81
74544;BME280;63016;55.030;38.710;2023-06-14T03:49:17;100305.63;;;17.47;42.65
74544;BME280;63016;55.030;38.710;2023-06-14T03:51:43;100301.00;;;17.56;42.38
74544;BME280;63016;55.030;38.710;2023-06-14T03:54:08;100313.78;;;17.65;42.61
74544;BME280;63016;55.030;38.710;2023-06-14T03:56:34;100318.88;;;17.73;42.62
74544;BME280;63016;55.030;38.710;2023-06-14T03:59:00;100315.25;;;17.81;42.33
74544;BME280;63016;55.030;38.710;2023-06-14T04:01:25;100311.38;;;17.90;42.56
74544;BME280;63016;55.030;38.710;2023-06-14T04:03:57;100316.25;;;18.00;42.40
74544;BME280;63016;55.030;38.710;2023-06-14T04:06:23;100320.72;;;18.13;42.46
74544;BME280;63016;55.030;38.710;2023-06-14T04:08:51;100315.44;;;18.19;42.15
74544;BME280;63016;55.030;38.710;2023-06-14T04:11:17;100316.22;;;18.27;41.94
74544;BME280;63016;55.030;38.710;2023-06-14T04:13:42;100312.78;;;18.33;41.97
74544;BME280;63016;55.030;38.710;2023-06-14T04:16:08;100313.56;;;18.40;41.96
74544;BME280;63016;55.030;38.710;2023-06-14T04:18:33;100315.38;;;18.46;41.82
74544;BME280;63016;55.030;38.710;2023-06-14T04:20:59;100306.84;;;18.50;42.02
74544;BME280;63016;55.030;38.710;2023-06-14T04:23:24;100317.19;;;18.59;41.68
74544;BME280;63016;55.030;38.710;2023-06-14T04:25:50;100314.53;;;18.65;41.77
74544;BME280;63016;55.030;38.710;2023-06-14T04:28:15;100318.19;;;18.71;41.93
74544;BME280;63016;55.030;38.710;2023-06-14T04:30:43;100311.06;;;18.78;41.83
74544;BME280;63016;55.030;38.710;2023-06-14T04:33:10;100311.84;;;18.85;42.00
74544;BME280;63016;55.030;38.710;2023-06-14T04:35:36;100313.03;;;18.96;42.13
74544;BME280;63016;55.030;38.710;2023-06-14T04:38:03;100306.91;;;19.02;41.66
74544;BME280;63016;55.030;38.710;2023-06-14T04:40:35;100307.47;;;19.11;41.84
74544;BME280;63016;55.030;38.710;2023-06-14T04:43:10;100300.53;;;19.16;41.85
74544;BME280;63016;55.030;38.710;2023-06-14T04:45:42;100304.09;;;19.29;42.04
74544;BME280;63016;55.030;38.710;2023-06-14T04:48:10;100300.00;;;19.39;41.82
74544;BME280;63016;55.030;38.710;2023-06-14T04:50:37;100295.22;;;19.48;41.82
74544;BME280;63016;55.030;38.710;2023-06-14T04:53:02;100299.47;;;19.56;41.43
74544;BME280;63016;55.030;38.710;2023-06-14T04:55:28;100301.09;;;19.63;41.54
74544;BME280;63016;55.030;38.710;2023-06-14T04:57:53;100299.59;;;19.67;41.31
74544;BME280;63016;55.030;38.710;2023-06-14T05:00:20;100303.25;;;19.73;41.32
74544;BME280;63016;55.030;38.710;2023-06-14T05:02:46;100298.72;;;19.80;41.58
74544;BME280;63016;55.030;38.710;2023-06-14T05:05:12;100306.75;;;19.92;41.63
74544;BME280;63016;55.030;38.710;2023-06-14T05:07:38;100305.03;;;20.04;41.82
74544;BME280;63016;55.030;38.710;2023-06-14T05:10:04;100307.09;;;20.20;41.66
74544;BME280;63016;55.030;38.710;2023-06-14T05:12:30;100310.69;;;20.33;41.42
74544;BME280;63016;55.030;38.710;2023-06-14T05:14:56;100308.69;;;20.46;41.46
74544;BME280;63016;55.030;38.710;2023-06-14T05:17:23;100307.75;;;20.59;40.99
74544;BME280;63016;55.030;38.710;2023-06-14T05:19:49;100314.75;;;20.72;40.96
74544;BME280;63016;55.030;38.710;2023-06-14T05:22:15;100311.16;;;20.85;40.90
74544;BME280;63016;55.030;38.710;2023-06-14T05:24:41;100319.78;;;20.98;40.74
74544;BME280;63016;55.030;38.710;2023-06-14T05:27:07;100310.81;;;21.11;40.52
74544;BME280;63016;55.030;38.710;2023-06-14T05:29:33;100308.44;;;21.21;40.24
74544;BME280;63016;55.030;38.710;2023-06-14T05:31:58;100305.63;;;21.35;40.24
74544;BME280;63016;55.030;38.710;2023-06-14T05:34:24;100312.13;;;21.50;40.17
74544;BME280;63016;55.030;38.710;2023-06-14T05:36:49;100310.44;;;21.68;40.34
74544;BME280;63016;55.030;38.710;2023-06-14T05:39:15;100311.38;;;21.85;40.04
74544;BME280;63016;55.030;38.710;2023-06-14T05:41:41;100304.34;;;22.02;39.89
74544;BME280;63016;55.030;38.710;2023-06-14T05:44:06;100304.53;;;22.19;40.15
74544;BME280;63016;55.030;38.710;2023-06-14T05:46:32;100294.78;;;22.37;39.92
74544;BME280;63016;55.030;38.710;2023-06-14T05:48:58;100304.00;;;22.57;39.99
74544;BME280;63016;55.030;38.710;2023-06-14T05:51:24;100304.09;;;22.74;39.69
74544;BME280;63016;55.030;38.710;2023-06-14T05:53:50;100307.06;;;22.90;38.75
74544;BME280;63016;55.030;38.710;2023-06-14T05:56:17;100309.38;;;22.98;38.80
74544;BME280;63016;55.030;38.710;2023-06-14T05:58:43;100310.91;;;23.11;38.38
74544;BME280;63016;55.030;38.710;2023-06-14T06:01:09;100301.03;;;23.23;38.34
74544;BME280;63016;55.030;38.710;2023-06-14T06:03:35;100305.16;;;23.30;38.27
74544;BME280;63016;55.030;38.710;2023-06-14T06:06:00;100304.41;;;23.47;38.36
74544;BME280;63016;55.030;38.710;2023-06-14T06:08:26;100307.31;;;23.62;39.05
74544;BME280;63016;55.030;38.710;2023-06-14T06:10:52;100310.25;;;23.77;38.50
74544;BME280;63016;55.030;38.710;2023-06-14T06:13:18;100308.41;;;23.95;37.92
74544;BME280;63016;55.030;38.710;2023-06-14T06:15:43;100309.59;;;24.04;37.99
74544;BME280;63016;55.030;38.710;2023-06-14T06:18:09;100311.34;;;24.15;37.92
74544;BME280;63016;55.030;38.710;2023-06-14T06:20:34;100311.03;;;24.28;37.63
74544;BME280;63016;55.030;38.710;2023-06-14T06:23:01;100305.50;;;24.35;37.57
74544;BME280;63016;55.030;38.710;2023-06-14T06:25:27;100305.34;;;24.42;37.34
74544;BME280;63016;55.030;38.710;2023-06-14T06:27:53;100305.50;;;24.52;37.18
74544;BME280;63016;55.030;38.710;2023-06-14T06:30:20;100302.91;;;24.57;37.03
74544;BME280;63016;55.030;38.710;2023-06-14T06:32:46;100298.16;;;24.64;36.85
74544;BME280;63016;55.030;38.710;2023-06-14T06:35:11;100299.59;;;24.72;36.48
74544;BME280;63016;55.030;38.710;2023-06-14T06:37:38;100301.00;;;24.79;36.58
74544;BME280;63016;55.030;38.710;2023-06-14T06:40:04;100293.06;;;24.84;36.21
74544;BME280;63016;55.030;38.710;2023-06-14T06:42:31;100301.38;;;24.88;35.90
74544;BME280;63016;55.030;38.710;2023-06-14T06:44:57;100308.09;;;24.91;35.82
74544;BME280;63016;55.030;38.710;2023-06-14T06:47:22;100310.81;;;24.96;36.21
74544;BME280;63016;55.030;38.710;2023-06-14T06:49:48;100310.31;;;24.99;36.10
74544;BME280;63016;55.030;38.710;2023-06-14T06:52:13;100304.56;;;25.07;36.26
74544;BME280;63016;55.030;38.710;2023-06-14T06:54:39;100313.47;;;25.18;36.51
74544;BME280;63016;55.030;38.710;2023-06-14T06:57:05;100309.59;;;25.30;36.36
74544;BME280;63016;55.030;38.710;2023-06-14T06:59:31;100309.69;;;25.41;36.08
74544;BME280;63016;55.030;38.710;2023-06-14T07:01:57;100296.38;;;25.46;35.71
74544;BME280;63016;55.030;38.710;2023-06-14T07:04:23;100293.41;;;25.42;35.15
74544;BME280;63016;55.030;38.710;2023-06-14T07:06:48;100303.81;;;25.38;35.36
74544;BME280;63016;55.030;38.710;2023-06-14T07:09:14;100309.69;;;25.41;35.73
74544;BME280;63016;55.030;38.710;2023-06-14T07:11:44;100300.63;;;25.42;35.66
74544;BME280;63016;55.030;38.710;2023-06-14T07:14:10;100306.75;;;25.42;35.03
74544;BME280;63016;55.030;38.710;2023-06-14T07:16:36;100304.63;;;25.39;34.92
74544;BME280;63016;55.030;38.710;2023-06-14T07:19:02;100302.97;;;25.38;34.95
74544;BME280;63016;55.030;38.710;2023-06-14T07:21:28;100291.00;;;25.41;35.02
74544;BME280;63016;55.030;38.710;2023-06-14T07:23:54;100300.88;;;25.40;34.74
74544;BME280;63016;55.030;38.710;2023-06-14T07:26:20;100295.50;;;25.35;34.39
74544;BME280;63016;55.030;38.710;2023-06-14T07:28:47;100293.31;;;25.32;35.07
74544;BME280;63016;55.030;38.710;2023-06-14T07:31:15;100282.13;;;25.35;35.38
74544;BME280;63016;55.030;38.710;2023-06-14T07:33:42;100290.53;;;25.49;35.67
74544;BME280;63016;55.030;38.710;2023-06-14T07:36:08;100286.84;;;25.55;34.86
74544;BME280;63016;55.030;38.710;2023-06-14T07:38:33;100288.50;;;25.61;35.11
74544;BME280;63016;55.030;38.710;2023-06-14T07:40:59;100286.94;;;25.65;34.73
74544;BME280;63016;55.030;38.710;2023-06-14T07:43:25;100281.09;;;25.68;34.86
74544;BME280;63016;55.030;38.710;2023-06-14T07:45:51;100286.97;;;25.70;34.90
74544;BME280;63016;55.030;38.710;2023-06-14T07:48:16;100288.22;;;25.62;34.45
74544;BME280;63016;55.030;38.710;2023-06-14T07:50:42;100277.47;;;25.52;34.99
74544;BME280;63016;55.030;38.710;2023-06-14T07:53:07;100279.09;;;25.53;35.25
74544;BME280;63016;55.030;38.710;2023-06-14T07:55:33;100270.06;;;25.59;35.15
74544;BME280;63016;55.030;38.710;2023-06-14T07:58:05;100279.97;;;25.64;34.82
74544;BME280;63016;55.030;38.710;2023-06-14T08:00:31;100277.84;;;25.66;34.46
74544;BME280;63016;55.030;38.710;2023-06-14T08:02:57;100284.78;;;25.67;35.04
74544;BME280;63016;55.030;38.710;2023-06-14T08:05:25;100287.75;;;25.71;34.49
74544;BME280;63016;55.030;38.710;2023-06-14T08:07:51;100273.59;;;25.70;34.22
74544;BME280;63016;55.030;38.710;2023-06-14T08:10:16;100281.31;;;25.67;34.37
74544;BME280;63016;55.030;38.710;2023-06-14T08:12:42;100270.91;;;25.65;34.49
74544;BME280;63016;55.030;38.710;2023-06-14T08:15:08;100266.91;;;25.68;34.35
74544;BME280;63016;55.030;38.710;2023-06-14T08:17:34;100276.81;;;25.72;34.36
74544;BME280;63016;55.030;38.710;2023-06-14T08:19:59;100266.94;;;25.73;34.37
74544;BME280;63016;55.030;38.710;2023-06-14T08:22:25;100266.22;;;25.77;34.59
74544;BME280;63016;55.030;38.710;2023-06-14T08:24:53;100265.69;;;25.80;34.27
74544;BME280;63016;55.030;38.710;2023-06-14T08:27:20;100274.28;;;25.82;34.47
74544;BME280;63016;55.030;38.710;2023-06-14T08:29:45;100269.19;;;25.86;34.90
74544;BME280;63016;55.030;38.710;2023-06-14T08:32:12;100269.53;;;25.95;34.84
74544;BME280;63016;55.030;38.710;2023-06-14T08:34:37;100272.25;;;26.05;34.86
74544;BME280;63016;55.030;38.710;2023-06-14T08:37:03;100284.06;;;26.09;34.27
74544;BME280;63016;55.030;38.710;2023-06-14T08:39:28;100270.66;;;26.04;34.04
74544;BME280;63016;55.030;38.710;2023-06-14T08:41:54;100275.69;;;26.00;34.09
74544;BME280;63016;55.030;38.710;2023-06-14T08:44:21;100283.47;;;26.02;33.93
74544;BME280;63016;55.030;38.710;2023-06-14T08:46:47;100272.53;;;26.03;34.31
74544;BME280;63016;55.030;38.710;2023-06-14T08:49:16;100261.31;;;26.06;34.25
74544;BME280;63016;55.030;38.710;2023-06-14T08:51:43;100270.34;;;26.00;34.20
74544;BME280;63016;55.030;38.710;2023-06-14T08:54:11;100257.53;;;25.97;34.57
74544;BME280;63016;55.030;38.710;2023-06-14T08:56:40;100264.75;;;26.02;34.63
74544;BME280;63016;55.030;38.710;2023-06-14T08:59:07;100268.47;;;26.01;34.10
74544;BME280;63016;55.030;38.710;2023-06-14T09:01:36;100265.28;;;25.99;33.96
74544;BME280;63016;55.030;38.710;2023-06-14T09:04:02;100259.13;;;25.98;34.22
74544;BME280;63016;55.030;38.710;2023-06-14T09:06:28;100251.13;;;26.03;34.07
74544;BME280;63016;55.030;38.710;2023-06-14T09:08:55;100255.72;;;26.13;34.53
74544;BME280;63016;55.030;38.710;2023-06-14T09:11:22;100259.50;;;26.17;34.38
74544;BME280;63016;55.030;38.710;2023-06-14T09:13:49;100249.59;;;26.12;34.10
74544;BME280;63016;55.030;38.710;2023-06-14T09:16:15;100245.31;;;26.11;34.35
74544;BME280;63016;55.030;38.710;2023-06-14T09:18:45;100245.84;;;26.13;34.43
74544;BME280;63016;55.030;38.710;2023-06-14T09:21:14;100248.25;;;26.15;34.19
74544;BME280;63016;55.030;38.710;2023-06-14T09:23:42;100242.66;;;26.17;34.46
74544;BME280;63016;55.030;38.710;2023-06-14T09:26:17;100238.13;;;26.22;34.83
74544;BME280;63016;55.030;38.710;2023-06-14T09:28:49;100242.16;;;26.30;34.42
74544;BME280;63016;55.030;38.710;2023-06-14T09:31:19;100234.97;;;26.30;34.19
74544;BME280;63016;55.030;38.710;2023-06-14T09:33:47;100230.13;;;26.27;34.50
74544;BME280;63016;55.030;38.710;2023-06-14T09:36:22;100218.91;;;26.30;34.17
74544;BME280;63016;55.030;38.710;2023-06-14T09:38:58;100229.09;;;26.38;34.36
74544;BME280;63016;55.030;38.710;2023-06-14T09:41:37;100227.78;;;26.41;34.31
74544;BME280;63016;55.030;38.710;2023-06-14T09:44:04;100225.66;;;26.43;34.12
74544;BME280;63016;55.030;38.710;2023-06-14T09:46:31;100224.84;;;26.43;34.42
74544;BME280;63016;55.030;38.710;2023-06-14T09:48:57;100224.88;;;26.48;34.19
74544;BME280;63016;55.030;38.710;2023-06-14T09:51:23;100219.53;;;26.53;34.49
74544;BME280;63016;55.030;38.710;2023-06-14T09:53:49;100217.41;;;26.55;33.96
74544;BME280;63016;55.030;38.710;2023-06-14T09:56:22;100225.16;;;26.51;33.98
74544;BME280;63016;55.030;38.710;2023-06-14T09:58:49;100209.09;;;26.51;33.74
74544;BME280;63016;55.030;38.710;2023-06-14T10:01:19;100216.84;;;26.53;34.02
74544;BME280;63016;55.030;38.710;2023-06-14T10:03:46;100220.09;;;26.55;33.67
74544;BME280;63016;55.030;38.710;2023-06-14T10:06:13;100217.16;;;26.56;33.80
74544;BME280;63016;55.030;38.710;2023-06-14T10:08:39;100206.47;;;26.61;33.82
74544;BME280;63016;55.030;38.710;2023-06-14T10:11:06;100208.88;;;26.68;33.45
74544;BME280;63016;55.030;38.710;2023-06-14T10:13:32;100204.06;;;26.70;33.34
74544;BME280;63016;55.030;38.710;2023-06-14T10:16:19;100203.28;;;26.70;33.90
74544;BME280;63016;55.030;38.710;2023-06-14T10:21:50;100195.75;;;26.67;33.71
74544;BME280;63016;55.030;38.710;2023-06-14T10:24:19;100192.00;;;26.73;33.42
74544;BME280;63016;55.030;38.710;2023-06-14T10:26:54;100189.91;;;26.75;33.99
74544;BME280;63016;55.030;38.710;2023-06-14T10:29:22;100186.44;;;26.79;33.58
74544;BME280;63016;55.030;38.710;2023-06-14T10:31:49;100183.19;;;26.82;33.61
74544;BME280;63016;55.030;38.710;2023-06-14T10:34:41;100191.78;;;26.89;34.13
74544;BME280;63016;55.030;38.710;2023-06-14T10:37:11;100182.97;;;26.89;33.47
74544;BME280;63016;55.030;38.710;2023-06-14T10:39:41;100192.59;;;26.95;33.46
74544;BME280;63016;55.030;38.710;2023-06-14T10:42:08;100187.75;;;27.02;33.31
74544;BME280;63016;55.030;38.710;2023-06-14T10:47:00;100182.69;;;27.01;32.29
74544;BME280;63016;55.030;38.710;2023-06-14T10:52:16;100173.34;;;27.08;32.89
74544;BME280;63016;55.030;38.710;2023-06-14T10:55:10;100177.63;;;27.14;33.44
74544;BME280;63016;55.030;38.710;2023-06-14T10:57:55;100170.13;;;27.16;32.86
74544;BME280;63016;55.030;38.710;2023-06-14T11:00:27;100162.34;;;27.20;33.22
74544;BME280;63016;55.030;38.710;2023-06-14T11:05:52;100164.22;;;27.35;33.01
74544;BME280;63016;55.030;38.710;2023-06-14T11:10:54;100161.53;;;27.40;32.55
74544;BME280;63016;55.030;38.710;2023-06-14T11:13:25;100162.91;;;27.32;32.33
74544;BME280;63016;55.030;38.710;2023-06-14T11:15:50;100161.28;;;27.26;32.14
74544;BME280;63016;55.030;38.710;2023-06-14T11:18:18;100155.09;;;27.31;32.50
74544;BME280;63016;55.030;38.710;2023-06-14T11:20:46;100159.94;;;27.34;32.42
74544;BME280;63016;55.030;38.710;2023-06-14T11:23:11;100158.59;;;27.36;31.79
74544;BME280;63016;55.030;38.710;2023-06-14T11:25:37;100153.25;;;27.41;31.94
74544;BME280;63016;55.030;38.710;2023-06-14T11:28:02;100152.16;;;27.48;32.45
74544;BME280;63016;55.030;38.710;2023-06-14T11:30:28;100149.47;;;27.53;32.03
74544;BME280;63016;55.030;38.710;2023-06-14T11:32:54;100143.53;;;27.56;32.49
74544;BME280;63016;55.030;38.710;2023-06-14T11:35:23;100137.66;;;27.54;31.81
74544;BME280;63016;55.030;38.710;2023-06-14T11:37:53;100144.38;;;27.51;31.88
74544;BME280;63016;55.030;38.710;2023-06-14T11:40:23;100140.88;;;27.51;32.80
74544;BME280;63016;55.030;38.710;2023-06-14T11:42:49;100134.19;;;27.53;32.13
74544;BME280;63016;55.030;38.710;2023-06-14T11:45:15;100136.84;;;27.58;31.88
74544;BME280;63016;55.030;38.710;2023-06-14T11:47:41;100140.34;;;27.54;31.92
74544;BME280;63016;55.030;38.710;2023-06-14T11:50:08;100136.06;;;27.53;32.39
74544;BME280;63016;55.030;38.710;2023-06-14T11:52:33;100133.09;;;27.59;32.60
74544;BME280;63016;55.030;38.710;2023-06-14T11:54:59;100137.09;;;27.67;31.98
74544;BME280;63016;55.030;38.710;2023-06-14T11:57:26;100139.22;;;27.70;31.85
74544;BME280;63016;55.030;38.710;2023-06-14T11:59:52;100132.81;;;27.71;31.80
74544;BME280;63016;55.030;38.710;2023-06-14T12:02:22;100126.88;;;27.69;32.28
74544;BME280;63016;55.030;38.710;2023-06-14T12:04:48;100127.97;;;27.73;31.58
74544;BME280;63016;55.030;38.710;2023-06-14T12:07:15;100129.03;;;27.77;31.32
74544;BME280;63016;55.030;38.710;2023-06-14T12:10:03;100137.06;;;27.82;31.97
74544;BME280;63016;55.030;38.710;2023-06-14T12:12:35;100133.28;;;27.88;31.69
74544;BME280;63016;55.030;38.710;2023-06-14T12:15:03;100124.97;;;27.95;31.70
74544;BME280;63016;55.030;38.710;2023-06-14T12:17:41;100121.72;;;27.98;31.40
74544;BME280;63016;55.030;38.710;2023-06-14T12:20:09;100115.25;;;27.99;30.79
74544;BME280;63016;55.030;38.710;2023-06-14T12:22:36;100113.94;;;27.97;30.94
74544;BME280;63016;55.030;38.710;2023-06-14T12:25:02;100111.78;;;27.99;30.79
74544;BME280;63016;55.030;38.710;2023-06-14T12:27:28;100105.88;;;28.02;30.74
74544;BME280;63016;55.030;38.710;2023-06-14T12:30:01;100099.69;;;28.06;30.97
74544;BME280;63016;55.030;38.710;2023-06-14T12:32:28;100111.22;;;28.07;30.67
74544;BME280;63016;55.030;38.710;2023-06-14T12:34:53;100109.63;;;28.06;31.10
74544;BME280;63016;55.030;38.710;2023-06-14T12:37:19;100105.59;;;28.03;30.66
74544;BME280;63016;55.030;38.710;2023-06-14T12:39:45;100095.66;;;28.04;31.20
74544;BME280;63016;55.030;38.710;2023-06-14T12:42:11;100105.31;;;28.10;31.12
74544;BME280;63016;55.030;38.710;2023-06-14T12:44:36;100098.56;;;28.12;31.28
74544;BME280;63016;55.030;38.710;2023-06-14T12:47:06;100095.34;;;28.15;31.32
74544;BME280;63016;55.030;38.710;2023-06-14T12:49:32;100090.78;;;28.16;30.60
74544;BME280;63016;55.030;38.710;2023-06-14T12:51:58;100095.31;;;28.21;31.24
74544;BME280;63016;55.030;38.710;2023-06-14T12:54:23;100095.78;;;28.28;31.41